sensor_id;sensor_type;location;lat;lon;timestamp;P1;durP1;ratioP1;P2;durP2;ratioP2
31126;SDS011;17775;57.948;12.514;2023-04-15T00:01:05;15.43;;;7.43;;
31126;SDS011;17775;57.948;12.514;2023-04-15T00:03:32;14.00;;;7.68;;
31126;SDS011;17775;57.948;12.514;2023-04-15T00:06:00;15.10;;;7.03;;
31126;SDS011;17775;57.948;12.514;2023-04-15T00:08:26;15.80;;;7.28;;
31126;SDS011;17775;57.948;12.514;2023-04-15T00:10:54;18.42;;;7.72;;
31126;SDS011;17775;57.948;12.514;2023-04-15T00:13:20;17.30;;;8.10;;
31126;SDS011;17775;57.948;12.514;2023-04-15T00:15:47;16.52;;;7.75;;
31126;SDS011;17775;57.948;12.514;2023-04-15T00:18:13;17.55;;;8.70;;
31126;SDS011;17775;57.948;12.514;2023-04-15T00:20:40;15.25;;;7.38;;
31126;SDS011;17775;57.948;12.514;2023-04-15T00:23:09;13.35;;;7.97;;
31126;SDS011;17775;57.948;12.514;2023-04-15T00:25:36;14.73;;;7.90;;
31126;SDS011;17775;57.948;12.514;2023-04-15T00:28:02;15.43;;;7.80;;
31126;SDS011;17775;57.948;12.514;2023-04-15T00:30:29;15.73;;;8.48;;
31126;SDS011;17775;57.948;12.514;2023-04-15T00:32:56;17.92;;;8.02;;
31126;SDS011;17775;57.948;12.514;2023-04-15T00:35:23;17.02;;;8.13;;
31126;SDS011;17775;57.948;12.514;2023-04-15T00:37:49;17.65;;;8.30;;
31126;SDS011;17775;57.948;12.514;2023-04-15T00:40:17;18.23;;;9.18;;
31126;SDS011;17775;57.948;12.514;2023-04-15T00:42:45;15.40;;;8.25;;
31126;SDS011;17775;57.948;12.514;2023-04-15T00:45:12;17.10;;;9.30;;
31126;SDS011;17775;57.948;12.514;2023-04-15T00:47:40;23.92;;;10.30;;
31126;SDS011;17775;57.948;12.514;2023-04-15T00:50:07;21.10;;;9.73;;
31126;SDS011;17775;57.948;12.514;2023-04-15T00:52:33;20.13;;;10.05;;
31126;SDS011;17775;57.948;12.514;2023-04-15T00:55:00;30.83;;;10.73;;
31126;SDS011;17775;57.948;12.514;2023-04-15T00:57:27;20.23;;;9.60;;
31126;SDS011;17775;57.948;12.514;2023-04-15T00:59:56;18.70;;;9.50;;
31126;SDS011;17775;57.948;12.514;2023-04-15T01:02:22;20.15;;;10.27;;
31126;SDS011;17775;57.948;12.514;2023-04-15T01:04:49;20.58;;;9.65;;
31126;SDS011;17775;57.948;12.514;2023-04-15T01:07:15;23.48;;;11.02;;
31126;SDS011;17775;57.948;12.514;2023-04-15T01:09:42;20.80;;;10.45;;
31126;SDS011;17775;57.948;12.514;2023-04-15T01:12:09;19.85;;;11.02;;
31126;SDS011;17775;57.948;12.514;2023-04-15T01:14:37;16.85;;;9.35;;
31126;SDS011;17775;57.948;12.514;2023-04-15T01:17:03;21.65;;;9.25;;
31126;SDS011;17775;57.948;12.514;2023-04-15T01:19:30;20.80;;;10.18;;
31126;SDS011;17775;57.948;12.514;2023-04-15T01:21:56;19.73;;;10.13;;
31126;SDS011;17775;57.948;12.514;2023-04-15T01:24:23;22.42;;;10.38;;
31126;SDS011;17775;57.948;12.514;2023-04-15T01:26:51;22.60;;;11.75;;
31126;SDS011;17775;57.948;12.514;2023-04-15T01:29:17;20.80;;;10.05;;
31126;SDS011;17775;57.948;12.514;2023-04-15T01:31:48;18.73;;;10.43;;
31126;SDS011;17775;57.948;12.514;2023-04-15T01:34:14;22.20;;;10.02;;
31126;SDS011;17775;57.948;12.514;2023-04-15T01:36:41;21.58;;;9.70;;
31126;SDS011;17775;57.948;12.514;2023-04-15T01:39:07;20.02;;;9.65;;
31126;SDS011;17775;57.948;12.514;2023-04-15T01:41:34;18.90;;;10.50;;
31126;SDS011;17775;57.948;12.514;2023-04-15T01:44:00;22.65;;;10.13;;
31126;SDS011;17775;57.948;12.514;2023-04-15T01:46:27;19.60;;;10.40;;
31126;SDS011;17775;57.948;12.514;2023-04-15T01:48:53;18.17;;;9.10;;
31126;SDS011;17775;57.948;12.514;2023-04-15T01:51:20;21.90;;;9.85;;
31126;SDS011;17775;57.948;12.514;2023-04-15T01:53:47;19.08;;;10.32;;
31126;SDS011;17775;57.948;12.514;2023-04-15T01:56:16;20.50;;;8.85;;
31126;SDS011;17775;57.948;12.514;2023-04-15T01:58:43;21.60;;;9.30;;
31126;SDS011;17775;57.948;12.514;2023-04-15T02:01:10;16.08;;;8.50;;
31126;SDS011;17775;57.948;12.514;2023-04-15T02:03:37;15.35;;;8.65;;
31126;SDS011;17775;57.948;12.514;2023-04-15T02:06:04;20.85;;;9.15;;
31126;SDS011;17775;57.948;12.514;2023-04-15T02:08:31;23.20;;;9.50;;
31126;SDS011;17775;57.948;12.514;2023-04-15T02:10:57;17.02;;;8.60;;
31126;SDS011;17775;57.948;12.514;2023-04-15T02:13:24;19.02;;;8.70;;
31126;SDS011;17775;57.948;12.514;2023-04-15T02:15:53;17.73;;;8.65;;
31126;SDS011;17775;57.948;12.514;2023-04-15T02:18:19;17.85;;;9.57;;
31126;SDS011;17775;57.948;12.514;2023-04-15T02:20:46;16.77;;;9.48;;
31126;SDS011;17775;57.948;12.514;2023-04-15T02:23:13;20.13;;;8.80;;
31126;SDS011;17775;57.948;12.514;2023-04-15T02:25:40;17.05;;;8.30;;
31126;SDS011;17775;57.948;12.514;2023-04-15T02:28:18;19.85;;;10.27;;
31126;SDS011;17775;57.948;12.514;2023-04-15T02:30:46;21.40;;;8.23;;
31126;SDS011;17775;57.948;12.514;2023-04-15T02:33:13;22.90;;;9.52;;
31126;SDS011;17775;57.948;12.514;2023-04-15T02:35:39;19.15;;;8.70;;
31126;SDS011;17775;57.948;12.514;2023-04-15T02:38:09;20.58;;;10.07;;
31126;SDS011;17775;57.948;12.514;2023-04-15T02:40:36;18.17;;;8.70;;
31126;SDS011;17775;57.948;12.514;2023-04-15T02:43:03;16.75;;;9.65;;
31126;SDS011;17775;57.948;12.514;2023-04-15T02:45:30;20.00;;;8.32;;
31126;SDS011;17775;57.948;12.514;2023-04-15T02:47:57;21.35;;;8.75;;
31126;SDS011;17775;57.948;12.514;2023-04-15T02:50:23;23.23;;;8.80;;
31126;SDS011;17775;57.948;12.514;2023-04-15T02:52:50;20.95;;;7.95;;
31126;SDS011;17775;57.948;12.514;2023-04-15T02:55:17;17.67;;;9.32;;
31126;SDS011;17775;57.948;12.514;2023-04-15T02:57:43;20.30;;;9.02;;
31126;SDS011;17775;57.948;12.514;2023-04-15T03:00:11;16.15;;;8.95;;
31126;SDS011;17775;57.948;12.514;2023-04-15T03:02:39;18.83;;;10.10;;
31126;SDS011;17775;57.948;12.514;2023-04-15T03:05:11;19.92;;;9.00;;
31126;SDS011;17775;57.948;12.514;2023-04-15T03:07:37;17.05;;;9.52;;
31126;SDS011;17775;57.948;12.514;2023-04-15T03:10:06;25.90;;;9.23;;
31126;SDS011;17775;57.948;12.514;2023-04-15T03:12:32;23.70;;;9.60;;
31126;SDS011;17775;57.948;12.514;2023-04-15T03:14:59;18.63;;;8.38;;
31126;SDS011;17775;57.948;12.514;2023-04-15T03:17:29;18.90;;;8.70;;
31126;SDS011;17775;57.948;12.514;2023-04-15T03:19:56;22.38;;;9.48;;
31126;SDS011;17775;57.948;12.514;2023-04-15T03:22:22;18.80;;;9.75;;
31126;SDS011;17775;57.948;12.514;2023-04-15T03:24:49;16.17;;;8.70;;
31126;SDS011;17775;57.948;12.514;2023-04-15T03:27:15;23.13;;;9.85;;
31126;SDS011;17775;57.948;12.514;2023-04-15T03:29:42;23.15;;;9.52;;
31126;SDS011;17775;57.948;12.514;2023-04-15T03:32:08;19.08;;;8.95;;
31126;SDS011;17775;57.948;12.514;2023-04-15T03:34:35;23.55;;;11.23;;
31126;SDS011;17775;57.948;12.514;2023-04-15T03:37:01;16.63;;;7.82;;
31126;SDS011;17775;57.948;12.514;2023-04-15T03:39:28;19.95;;;9.02;;
31126;SDS011;17775;57.948;12.514;2023-04-15T03:41:54;17.73;;;9.38;;
31126;SDS011;17775;57.948;12.514;2023-04-15T03:44:21;18.83;;;8.57;;
31126;SDS011;17775;57.948;12.514;2023-04-15T03:46:48;16.95;;;8.82;;
31126;SDS011;17775;57.948;12.514;2023-04-15T03:49:14;23.50;;;10.55;;
31126;SDS011;17775;57.948;12.514;2023-04-15T03:51:41;20.42;;;8.60;;
31126;SDS011;17775;57.948;12.514;2023-04-15T03:54:07;22.70;;;8.65;;
31126;SDS011;17775;57.948;12.514;2023-04-15T03:56:34;20.42;;;10.75;;
31126;SDS011;17775;57.948;12.514;2023-04-15T03:59:03;15.48;;;8.23;;
31126;SDS011;17775;57.948;12.514;2023-04-15T04:01:29;18.08;;;9.98;;
31126;SDS011;17775;57.948;12.514;2023-04-15T04:03:56;17.85;;;8.57;;
31126;SDS011;17775;57.948;12.514;2023-04-15T04:06:23;17.73;;;8.60;;
31126;SDS011;17775;57.948;12.514;2023-04-15T04:08:49;21.17;;;8.85;;
31126;SDS011;17775;57.948;12.514;2023-04-15T04:11:16;26.40;;;9.68;;
31126;SDS011;17775;57.948;12.514;2023-04-15T04:13:42;19.42;;;9.35;;
31126;SDS011;17775;57.948;12.514;2023-04-15T04:16:09;21.67;;;10.13;;
31126;SDS011;17775;57.948;12.514;2023-04-15T04:18:35;17.50;;;8.40;;
31126;SDS011;17775;57.948;12.514;2023-04-15T04:21:02;20.67;;;9.40;;
31126;SDS011;17775;57.948;12.514;2023-04-15T04:23:28;21.98;;;9.95;;
31126;SDS011;17775;57.948;12.514;2023-04-15T04:25:55;21.33;;;9.30;;
31126;SDS011;17775;57.948;12.514;2023-04-15T04:28:22;20.95;;;9.52;;
31126;SDS011;17775;57.948;12.514;2023-04-15T04:30:48;25.17;;;10.48;;
31126;SDS011;17775;57.948;12.514;2023-04-15T04:33:14;22.05;;;9.82;;
31126;SDS011;17775;57.948;12.514;2023-04-15T04:35:41;22.77;;;9.80;;
31126;SDS011;17775;57.948;12.514;2023-04-15T04:38:12;23.17;;;9.68;;
31126;SDS011;17775;57.948;12.514;2023-04-15T04:43:05;21.27;;;8.95;;
31126;SDS011;17775;57.948;12.514;2023-04-15T04:45:31;24.95;;;9.85;;
31126;SDS011;17775;57.948;12.514;2023-04-15T04:47:58;19.67;;;9.65;;
31126;SDS011;17775;57.948;12.514;2023-04-15T04:50:24;24.45;;;9.60;;
31126;SDS011;17775;57.948;12.514;2023-04-15T04:52:51;23.58;;;10.25;;
31126;SDS011;17775;57.948;12.514;2023-04-15T04:55:17;22.52;;;10.27;;
31126;SDS011;17775;57.948;12.514;2023-04-15T04:57:46;20.77;;;8.65;;
31126;SDS011;17775;57.948;12.514;2023-04-15T05:00:13;30.02;;;11.07;;
31126;SDS011;17775;57.948;12.514;2023-04-15T05:02:40;18.65;;;9.80;;
31126;SDS011;17775;57.948;12.514;2023-04-15T05:05:09;25.30;;;10.10;;
31126;SDS011;17775;57.948;12.514;2023-04-15T05:07:37;24.95;;;10.30;;
31126;SDS011;17775;57.948;12.514;2023-04-15T05:10:04;27.05;;;11.45;;
31126;SDS011;17775;57.948;12.514;2023-04-15T05:12:30;22.67;;;9.93;;
31126;SDS011;17775;57.948;12.514;2023-04-15T05:14:59;22.52;;;9.25;;
31126;SDS011;17775;57.948;12.514;2023-04-15T05:17:25;25.85;;;9.43;;
31126;SDS011;17775;57.948;12.514;2023-04-15T05:19:52;22.20;;;8.93;;
31126;SDS011;17775;57.948;12.514;2023-04-15T05:22:19;24.35;;;9.60;;
31126;SDS011;17775;57.948;12.514;2023-04-15T05:24:45;19.95;;;9.25;;
31126;SDS011;17775;57.948;12.514;2023-04-15T05:27:12;22.50;;;9.57;;
31126;SDS011;17775;57.948;12.514;2023-04-15T05:29:38;23.17;;;10.05;;
31126;SDS011;17775;57.948;12.514;2023-04-15T05:32:05;18.13;;;8.52;;
31126;SDS011;17775;57.948;12.514;2023-04-15T05:34:31;31.13;;;10.70;;
31126;SDS011;17775;57.948;12.514;2023-04-15T05:36:58;19.58;;;9.48;;
31126;SDS011;17775;57.948;12.514;2023-04-15T05:39:24;22.65;;;9.68;;
31126;SDS011;17775;57.948;12.514;2023-04-15T05:41:51;21.65;;;8.30;;
31126;SDS011;17775;57.948;12.514;2023-04-15T05:44:19;21.48;;;9.20;;
31126;SDS011;17775;57.948;12.514;2023-04-15T05:46:46;19.83;;;9.82;;
31126;SDS011;17775;57.948;12.514;2023-04-15T05:49:12;19.65;;;9.80;;
31126;SDS011;17775;57.948;12.514;2023-04-15T05:51:38;24.33;;;9.65;;
31126;SDS011;17775;57.948;12.514;2023-04-15T05:54:08;21.10;;;9.75;;
31126;SDS011;17775;57.948;12.514;2023-04-15T05:56:35;18.65;;;9.43;;
31126;SDS011;17775;57.948;12.514;2023-04-15T05:59:02;20.33;;;8.93;;
31126;SDS011;17775;57.948;12.514;2023-04-15T06:01:29;21.38;;;9.80;;
31126;SDS011;17775;57.948;12.514;2023-04-15T06:03:55;18.50;;;8.55;;
31126;SDS011;17775;57.948;12.514;2023-04-15T06:06:22;16.05;;;8.35;;
31126;SDS011;17775;57.948;12.514;2023-04-15T06:08:49;20.35;;;9.60;;
31126;SDS011;17775;57.948;12.514;2023-04-15T06:11:19;21.95;;;8.38;;
31126;SDS011;17775;57.948;12.514;2023-04-15T06:13:46;17.38;;;8.88;;
31126;SDS011;17775;57.948;12.514;2023-04-15T06:16:13;22.00;;;9.20;;
31126;SDS011;17775;57.948;12.514;2023-04-15T06:18:39;20.52;;;8.48;;
31126;SDS011;17775;57.948;12.514;2023-04-15T06:21:06;21.33;;;9.20;;
31126;SDS011;17775;57.948;12.514;2023-04-15T06:23:33;16.50;;;8.55;;
31126;SDS011;17775;57.948;12.514;2023-04-15T06:26:00;17.88;;;8.20;;
31126;SDS011;17775;57.948;12.514;2023-04-15T06:28:26;25.23;;;9.60;;
31126;SDS011;17775;57.948;12.514;2023-04-15T06:30:54;17.67;;;9.40;;
31126;SDS011;17775;57.948;12.514;2023-04-15T06:33:21;20.23;;;9.00;;
31126;SDS011;17775;57.948;12.514;2023-04-15T06:35:47;21.90;;;9.43;;
31126;SDS011;17775;57.948;12.514;2023-04-15T06:38:14;20.00;;;9.30;;
31126;SDS011;17775;57.948;12.514;2023-04-15T06:40:41;23.60;;;9.65;;
31126;SDS011;17775;57.948;12.514;2023-04-15T06:43:08;24.88;;;10.23;;
31126;SDS011;17775;57.948;12.514;2023-04-15T06:45:34;18.00;;;9.10;;
31126;SDS011;17775;57.948;12.514;2023-04-15T06:48:01;20.40;;;10.55;;
31126;SDS011;17775;57.948;12.514;2023-04-15T06:50:27;22.70;;;10.40;;
31126;SDS011;17775;57.948;12.514;2023-04-15T06:52:54;17.33;;;8.68;;
31126;SDS011;17775;57.948;12.514;2023-04-15T06:55:21;20.40;;;8.52;;
31126;SDS011;17775;57.948;12.514;2023-04-15T06:57:47;26.13;;;8.90;;
31126;SDS011;17775;57.948;12.514;2023-04-15T07:00:14;18.63;;;8.60;;
31126;SDS011;17775;57.948;12.514;2023-04-15T07:02:40;20.40;;;8.93;;
31126;SDS011;17775;57.948;12.514;2023-04-15T07:05:07;19.42;;;8.57;;
31126;SDS011;17775;57.948;12.514;2023-04-15T07:07:34;18.02;;;8.10;;
31126;SDS011;17775;57.948;12.514;2023-04-15T07:10:04;19.02;;;8.15;;
31126;SDS011;17775;57.948;12.514;2023-04-15T07:12:31;20.95;;;9.10;;
31126;SDS011;17775;57.948;12.514;2023-04-15T07:14:57;20.48;;;8.63;;
31126;SDS011;17775;57.948;12.514;2023-04-15T07:17:24;21.35;;;8.95;;
31126;SDS011;17775;57.948;12.514;2023-04-15T07:19:50;18.13;;;8.32;;
31126;SDS011;17775;57.948;12.514;2023-04-15T07:22:17;13.55;;;7.65;;
31126;SDS011;17775;57.948;12.514;2023-04-15T07:24:43;24.33;;;9.63;;
31126;SDS011;17775;57.948;12.514;2023-04-15T07:27:10;16.85;;;9.23;;
31126;SDS011;17775;57.948;12.514;2023-04-15T07:29:36;19.23;;;8.65;;
31126;SDS011;17775;57.948;12.514;2023-04-15T07:32:03;21.08;;;9.00;;
31126;SDS011;17775;57.948;12.514;2023-04-15T07:34:29;19.05;;;8.52;;
31126;SDS011;17775;57.948;12.514;2023-04-15T07:36:57;18.10;;;8.55;;
31126;SDS011;17775;57.948;12.514;2023-04-15T07:39:24;17.65;;;8.40;;
31126;SDS011;17775;57.948;12.514;2023-04-15T07:41:51;18.48;;;8.98;;
31126;SDS011;17775;57.948;12.514;2023-04-15T07:44:17;14.50;;;8.48;;
31126;SDS011;17775;57.948;12.514;2023-04-15T07:46:43;24.30;;;10.05;;
31126;SDS011;17775;57.948;12.514;2023-04-15T07:49:10;16.67;;;8.40;;
31126;SDS011;17775;57.948;12.514;2023-04-15T07:51:37;20.90;;;10.27;;
31126;SDS011;17775;57.948;12.514;2023-04-15T07:54:04;20.08;;;9.52;;
31126;SDS011;17775;57.948;12.514;2023-04-15T07:56:30;15.50;;;8.00;;
31126;SDS011;17775;57.948;12.514;2023-04-15T07:58:57;17.05;;;8.65;;
31126;SDS011;17775;57.948;12.514;2023-04-15T08:01:24;21.52;;;10.02;;
31126;SDS011;17775;57.948;12.514;2023-04-15T08:03:50;16.38;;;7.95;;
31126;SDS011;17775;57.948;12.514;2023-04-15T08:06:17;15.65;;;8.48;;
31126;SDS011;17775;57.948;12.514;2023-04-15T08:08:44;21.10;;;9.55;;
31126;SDS011;17775;57.948;12.514;2023-04-15T08:11:13;23.42;;;9.57;;
31126;SDS011;17775;57.948;12.514;2023-04-15T08:13:40;18.50;;;8.00;;
31126;SDS011;17775;57.948;12.514;2023-04-15T08:16:19;23.45;;;10.00;;
31126;SDS011;17775;57.948;12.514;2023-04-15T08:18:46;17.98;;;8.07;;
31126;SDS011;17775;57.948;12.514;2023-04-15T08:21:15;17.00;;;8.60;;
31126;SDS011;17775;57.948;12.514;2023-04-15T08:23:42;17.17;;;8.23;;
31126;SDS011;17775;57.948;12.514;2023-04-15T08:26:09;21.13;;;8.43;;
31126;SDS011;17775;57.948;12.514;2023-04-15T08:28:36;19.48;;;9.32;;
31126;SDS011;17775;57.948;12.514;2023-04-15T08:31:03;17.35;;;9.05;;
31126;SDS011;17775;57.948;12.514;2023-04-15T08:33:30;18.77;;;8.88;;
31126;SDS011;17775;57.948;12.514;2023-04-15T08:35:56;20.67;;;8.40;;
31126;SDS011;17775;57.948;12.514;2023-04-15T08:38:25;19.02;;;8.15;;
31126;SDS011;17775;57.948;12.514;2023-04-15T08:40:52;18.85;;;7.65;;
31126;SDS011;17775;57.948;12.514;2023-04-15T08:43:22;18.15;;;7.90;;
31126;SDS011;17775;57.948;12.514;2023-04-15T08:45:53;13.85;;;7.32;;
31126;SDS011;17775;57.948;12.514;2023-04-15T08:48:20;19.08;;;7.97;;
31126;SDS011;17775;57.948;12.514;2023-04-15T08:50:47;17.75;;;7.57;;
31126;SDS011;17775;57.948;12.514;2023-04-15T08:53:14;15.07;;;7.47;;
31126;SDS011;17775;57.948;12.514;2023-04-15T08:55:44;14.32;;;7.95;;
31126;SDS011;17775;57.948;12.514;2023-04-15T08:58:11;16.70;;;7.00;;
31126;SDS011;17775;57.948;12.514;2023-04-15T09:00:39;13.77;;;8.02;;
31126;SDS011;17775;57.948;12.514;2023-04-15T09:03:05;13.57;;;6.75;;
31126;SDS011;17775;57.948;12.514;2023-04-15T09:05:33;13.80;;;7.43;;
31126;SDS011;17775;57.948;12.514;2023-04-15T09:08:00;18.23;;;8.48;;
31126;SDS011;17775;57.948;12.514;2023-04-15T09:10:27;12.20;;;6.63;;
31126;SDS011;17775;57.948;12.514;2023-04-15T09:12:54;19.45;;;9.02;;
31126;SDS011;17775;57.948;12.514;2023-04-15T09:15:20;20.90;;;7.63;;
31126;SDS011;17775;57.948;12.514;2023-04-15T09:17:48;20.05;;;8.65;;
31126;SDS011;17775;57.948;12.514;2023-04-15T09:20:15;13.15;;;6.68;;
31126;SDS011;17775;57.948;12.514;2023-04-15T09:22:45;11.18;;;7.50;;
31126;SDS011;17775;57.948;12.514;2023-04-15T09:25:24;16.30;;;8.13;;
31126;SDS011;17775;57.948;12.514;2023-04-15T09:27:56;16.48;;;7.00;;
31126;SDS011;17775;57.948;12.514;2023-04-15T09:30:23;10.90;;;6.68;;
31126;SDS011;17775;57.948;12.514;2023-04-15T09:32:53;13.23;;;7.82;;
31126;SDS011;17775;57.948;12.514;2023-04-15T09:35:20;12.75;;;7.57;;
31126;SDS011;17775;57.948;12.514;2023-04-15T09:37:48;11.80;;;7.20;;
31126;SDS011;17775;57.948;12.514;2023-04-15T09:40:14;13.90;;;8.10;;
31126;SDS011;17775;57.948;12.514;2023-04-15T09:42:56;13.80;;;7.10;;
31126;SDS011;17775;57.948;12.514;2023-04-15T09:45:22;12.68;;;7.00;;
31126;SDS011;17775;57.948;12.514;2023-04-15T09:47:52;13.90;;;7.43;;
31126;SDS011;17775;57.948;12.514;2023-04-15T09:50:19;12.82;;;7.30;;
31126;SDS011;17775;57.948;12.514;2023-04-15T09:52:46;10.68;;;6.20;;
31126;SDS011;17775;57.948;12.514;2023-04-15T09:55:13;12.15;;;6.38;;
31126;SDS011;17775;57.948;12.514;2023-04-15T09:57:43;11.20;;;6.45;;
31126;SDS011;17775;57.948;12.514;2023-04-15T10:00:12;13.13;;;7.55;;
31126;SDS011;17775;57.948;12.514;2023-04-15T10:02:39;11.60;;;6.30;;
31126;SDS011;17775;57.948;12.514;2023-04-15T10:05:06;12.35;;;6.45;;
31126;SDS011;17775;57.948;12.514;2023-04-15T10:07:32;12.32;;;6.63;;
31126;SDS011;17775;57.948;12.514;2023-04-15T10:10:00;14.80;;;7.00;;
31126;SDS011;17775;57.948;12.514;2023-04-15T10:12:28;15.23;;;6.30;;
31126;SDS011;17775;57.948;12.514;2023-04-15T10:14:59;13.10;;;6.45;;
31126;SDS011;17775;57.948;12.514;2023-04-15T10:17:28;14.27;;;6.85;;
31126;SDS011;17775;57.948;12.514;2023-04-15T10:19:59;11.95;;;6.45;;
31126;SDS011;17775;57.948;12.514;2023-04-15T10:22:26;12.65;;;6.00;;
31126;SDS011;17775;57.948;12.514;2023-04-15T10:24:53;11.65;;;7.15;;
31126;SDS011;17775;57.948;12.514;2023-04-15T10:27:21;13.63;;;6.28;;
31126;SDS011;17775;57.948;12.514;2023-04-15T10:29:50;18.38;;;7.32;;
31126;SDS011;17775;57.948;12.514;2023-04-15T10:32:17;10.00;;;5.85;;
31126;SDS011;17775;57.948;12.514;2023-04-15T10:34:46;10.82;;;5.55;;
31126;SDS011;17775;57.948;12.514;2023-04-15T10:37:19;10.93;;;5.80;;
31126;SDS011;17775;57.948;12.514;2023-04-15T10:39:45;11.05;;;5.82;;
31126;SDS011;17775;57.948;12.514;2023-04-15T10:42:12;9.70;;;6.07;;
31126;SDS011;17775;57.948;12.514;2023-04-15T10:44:41;9.45;;;6.13;;
31126;SDS011;17775;57.948;12.514;2023-04-15T10:47:13;9.43;;;6.43;;
31126;SDS011;17775;57.948;12.514;2023-04-15T10:49:44;10.20;;;6.35;;
31126;SDS011;17775;57.948;12.514;2023-04-15T10:52:11;11.63;;;6.18;;
31126;SDS011;17775;57.948;12.514;2023-04-15T10:54:37;8.32;;;5.32;;
31126;SDS011;17775;57.948;12.514;2023-04-15T10:59:32;9.30;;;5.30;;
31126;SDS011;17775;57.948;12.514;2023-04-15T11:01:59;13.40;;;6.43;;
31126;SDS011;17775;57.948;12.514;2023-04-15T11:07:12;9.68;;;5.82;;
31126;SDS011;17775;57.948;12.514;2023-04-15T11:09:38;10.93;;;5.60;;
31126;SDS011;17775;57.948;12.514;2023-04-15T11:12:07;8.68;;;5.35;;
31126;SDS011;17775;57.948;12.514;2023-04-15T11:14:40;9.82;;;5.07;;
31126;SDS011;17775;57.948;12.514;2023-04-15T11:17:10;9.05;;;5.72;;
31126;SDS011;17775;57.948;12.514;2023-04-15T11:19:37;10.00;;;4.82;;
31126;SDS011;17775;57.948;12.514;2023-04-15T11:22:09;9.57;;;5.00;;
31126;SDS011;17775;57.948;12.514;2023-04-15T11:24:45;9.67;;;5.17;;
31126;SDS011;17775;57.948;12.514;2023-04-15T11:27:24;8.48;;;4.65;;
31126;SDS011;17775;57.948;12.514;2023-04-15T11:29:51;7.10;;;4.47;;
31126;SDS011;17775;57.948;12.514;2023-04-15T11:32:18;9.73;;;4.85;;
31126;SDS011;17775;57.948;12.514;2023-04-15T11:34:47;9.32;;;5.20;;
31126;SDS011;17775;57.948;12.514;2023-04-15T11:37:14;7.22;;;4.50;;
31126;SDS011;17775;57.948;12.514;2023-04-15T11:39:40;10.38;;;5.20;;
31126;SDS011;17775;57.948;12.514;2023-04-15T11:42:15;7.45;;;4.32;;
31126;SDS011;17775;57.948;12.514;2023-04-15T11:44:42;8.98;;;4.10;;
31126;SDS011;17775;57.948;12.514;2023-04-15T11:47:21;7.28;;;3.92;;
31126;SDS011;17775;57.948;12.514;2023-04-15T11:49:50;5.82;;;4.13;;
31126;SDS011;17775;57.948;12.514;2023-04-15T11:52:24;9.63;;;4.35;;
31126;SDS011;17775;57.948;12.514;2023-04-15T11:54:51;9.45;;;3.95;;
31126;SDS011;17775;57.948;12.514;2023-04-15T11:57:17;7.47;;;3.97;;
31126;SDS011;17775;57.948;12.514;2023-04-15T11:59:44;9.00;;;4.20;;
31126;SDS011;17775;57.948;12.514;2023-04-15T12:02:11;6.65;;;3.85;;
31126;SDS011;17775;57.948;12.514;2023-04-15T12:04:40;8.13;;;4.30;;
31126;SDS011;17775;57.948;12.514;2023-04-15T12:07:07;5.43;;;3.50;;
31126;SDS011;17775;57.948;12.514;2023-04-15T12:09:36;7.43;;;3.85;;
31126;SDS011;17775;57.948;12.514;2023-04-15T12:12:03;6.97;;;3.58;;
31126;SDS011;17775;57.948;12.514;2023-04-15T12:14:30;7.35;;;3.63;;
31126;SDS011;17775;57.948;12.514;2023-04-15T12:17:01;6.05;;;3.97;;
31126;SDS011;17775;57.948;12.514;2023-04-15T12:19:38;7.85;;;3.67;;
31126;SDS011;17775;57.948;12.514;2023-04-15T12:22:07;6.63;;;3.67;;
31126;SDS011;17775;57.948;12.514;2023-04-15T12:24:34;6.65;;;3.72;;
31126;SDS011;17775;57.948;12.514;2023-04-15T12:27:08;6.25;;;3.45;;
31126;SDS011;17775;57.948;12.514;2023-04-15T12:29:36;6.60;;;3.92;;
31126;SDS011;17775;57.948;12.514;2023-04-15T12:32:04;6.43;;;3.50;;
31126;SDS011;17775;57.948;12.514;2023-04-15T12:34:32;4.85;;;3.17;;
31126;SDS011;17775;57.948;12.514;2023-04-15T12:36:59;5.28;;;3.33;;
31126;SDS011;17775;57.948;12.514;2023-04-15T12:39:30;6.13;;;3.58;;
31126;SDS011;17775;57.948;12.514;2023-04-15T12:41:57;6.93;;;3.95;;
31126;SDS011;17775;57.948;12.514;2023-04-15T12:44:25;7.65;;;3.80;;
31126;SDS011;17775;57.948;12.514;2023-04-15T12:46:52;4.90;;;3.63;;
31126;SDS011;17775;57.948;12.514;2023-04-15T12:49:20;5.93;;;3.30;;
31126;SDS011;17775;57.948;12.514;2023-04-15T12:51:53;6.70;;;3.03;;
31126;SDS011;17775;57.948;12.514;2023-04-15T12:54:20;6.05;;;3.72;;
31126;SDS011;17775;57.948;12.514;2023-04-15T12:56:48;5.55;;;3.45;;
31126;SDS011;17775;57.948;12.514;2023-04-15T12:59:15;5.18;;;2.88;;
31126;SDS011;17775;57.948;12.514;2023-04-15T13:01:44;8.52;;;3.40;;
31126;SDS011;17775;57.948;12.514;2023-04-15T13:04:10;4.82;;;3.10;;
31126;SDS011;17775;57.948;12.514;2023-04-15T13:06:37;4.32;;;3.47;;
31126;SDS011;17775;57.948;12.514;2023-04-15T13:09:05;6.40;;;3.15;;
31126;SDS011;17775;57.948;12.514;2023-04-15T13:11:32;5.40;;;2.95;;
31126;SDS011;17775;57.948;12.514;2023-04-15T13:14:00;4.75;;;3.10;;
31126;SDS011;17775;57.948;12.514;2023-04-15T13:16:27;6.57;;;2.92;;
31126;SDS011;17775;57.948;12.514;2023-04-15T13:18:53;9.63;;;3.97;;
31126;SDS011;17775;57.948;12.514;2023-04-15T13:21:20;7.18;;;3.53;;
31126;SDS011;17775;57.948;12.514;2023-04-15T13:23:47;4.82;;;3.10;;
31126;SDS011;17775;57.948;12.514;2023-04-15T13:26:16;10.13;;;4.35;;
31126;SDS011;17775;57.948;12.514;2023-04-15T13:28:43;6.00;;;3.17;;
31126;SDS011;17775;57.948;12.514;2023-04-15T13:31:09;5.35;;;3.28;;
31126;SDS011;17775;57.948;12.514;2023-04-15T13:33:36;7.95;;;3.42;;
31126;SDS011;17775;57.948;12.514;2023-04-15T13:36:02;15.43;;;4.93;;
31126;SDS011;17775;57.948;12.514;2023-04-15T13:38:29;4.75;;;3.00;;
31126;SDS011;17775;57.948;12.514;2023-04-15T13:40:55;5.43;;;3.10;;
31126;SDS011;17775;57.948;12.514;2023-04-15T13:43:21;7.10;;;3.70;;
31126;SDS011;17775;57.948;12.514;2023-04-15T13:45:48;4.88;;;3.28;;
31126;SDS011;17775;57.948;12.514;2023-04-15T13:48:15;6.28;;;3.10;;
31126;SDS011;17775;57.948;12.514;2023-04-15T13:50:42;5.72;;;3.20;;
31126;SDS011;17775;57.948;12.514;2023-04-15T13:53:11;7.35;;;3.20;;
31126;SDS011;17775;57.948;12.514;2023-04-15T13:55:37;5.43;;;3.08;;
31126;SDS011;17775;57.948;12.514;2023-04-15T13:58:07;4.25;;;2.95;;
31126;SDS011;17775;57.948;12.514;2023-04-15T14:00:33;5.57;;;3.00;;
31126;SDS011;17775;57.948;12.514;2023-04-15T14:03:00;4.72;;;3.35;;
31126;SDS011;17775;57.948;12.514;2023-04-15T14:05:27;6.18;;;3.05;;
31126;SDS011;17775;57.948;12.514;2023-04-15T14:07:53;6.82;;;3.10;;
31126;SDS011;17775;57.948;12.514;2023-04-15T14:10:19;5.47;;;3.10;;
31126;SDS011;17775;57.948;12.514;2023-04-15T14:12:46;9.13;;;3.22;;
31126;SDS011;17775;57.948;12.514;2023-04-15T14:15:12;6.57;;;3.50;;
31126;SDS011;17775;57.948;12.514;2023-04-15T14:17:39;11.75;;;3.50;;
31126;SDS011;17775;57.948;12.514;2023-04-15T14:20:07;5.35;;;3.25;;
31126;SDS011;17775;57.948;12.514;2023-04-15T14:22:34;6.13;;;3.67;;
31126;SDS011;17775;57.948;12.514;2023-04-15T14:25:01;5.30;;;3.25;;
31126;SDS011;17775;57.948;12.514;2023-04-15T14:27:27;6.20;;;3.60;;
31126;SDS011;17775;57.948;12.514;2023-04-15T14:29:54;6.70;;;3.22;;
31126;SDS011;17775;57.948;12.514;2023-04-15T14:32:20;7.72;;;3.70;;